Time;durP1;ratioP1;P1;durP2;ratioP2;P2;SDS_P1;SDS_P2;PMS_P1;PMS_P2;Temp;Humidity;BMP_temperature;BMP_pressure;BME280_temperature;BME280_humidity;BME280_pressure;Samples;Min_cycle;Max_cycle;Signal;HPM_P1;HPM_P2
2022/05/23 00:01:54;;;;;;;;;;;;;;;16.62;46.94;99281.12;4270060;33;33834;-84
2022/05/23 00:04:24;;;;;;;;;;;;;;;16.60;46.88;99279.50;4268977;33;33725;-84
2022/05/23 00:06:53;;;;;;;;;;;;;;;16.64;46.83;99276.63;4268955;33;34726;-84
2022/05/23 00:09:24;;;;;;;;;;;;;;;16.74;46.65;99278.84;4273981;33;33687;-85
2022/05/23 00:11:54;;;;;;;;;;;;;;;16.69;46.89;99275.59;4268887;33;33275;-85
2022/05/23 00:14:23;;;;;;;;;;;;;;;16.65;47.00;99282.75;4268717;33;34719;-85
2022/05/23 00:16:51;;;;;;;;;;;;;;;16.36;47.86;99282.25;4268586;33;34070;-86
2022/05/23 00:19:20;;;;;;;;;;;;;;;16.45;47.51;99281.00;4255654;33;32411;-84
2022/05/23 00:21:50;;;;;;;;;;;;;;;16.48;47.41;99283.50;4274221;33;33449;-85
2022/05/23 00:24:20;;;;;;;;;;;;;;;16.50;47.66;99273.78;4273368;33;34411;-84
2022/05/23 00:26:49;;;;;;;;;;;;;;;16.40;47.67;99273.34;4268701;33;35514;-84
2022/05/23 00:29:19;;;;;;;;;;;;;;;16.40;47.42;99285.56;4268616;33;34246;-84
2022/05/23 00:37:22;;;;;;;;;;;;;;;16.42;47.93;99274.12;4268818;33;33765;-84
2022/05/23 00:39:50;;;;;;;;;;;;;;;16.39;48.10;99276.03;4274028;33;33122;-84
2022/05/23 00:45:07;;;;;;;;;;;;;;;16.55;47.85;99270.97;4268981;33;33328;-86
2022/05/23 00:47:36;;;;;;;;;;;;;;;16.47;47.58;99260.81;4268473;33;34895;-84
2022/05/23 00:50:04;;;;;;;;;;;;;;;16.35;47.74;99271.84;4268232;33;34376;-84
2022/05/23 00:52:35;;;;;;;;;;;;;;;16.46;47.60;99267.00;4271011;33;33223;-84
2022/05/23 00:55:05;;;;;;;;;;;;;;;16.48;47.59;99273.03;4275452;33;33939;-84
2022/05/23 00:57:35;;;;;;;;;;;;;;;16.50;47.51;99271.16;4268443;33;33659;-84
2022/05/23 01:00:05;;;;;;;;;;;;;;;16.43;47.80;99275.84;4268162;33;34227;-83
2022/05/23 01:02:35;;;;;;;;;;;;;;;16.45;47.54;99270.50;4268464;33;32716;-84
2022/05/23 01:05:04;;;;;;;;;;;;;;;16.33;48.08;99274.53;4268297;33;33915;-84
2022/05/23 01:07:32;;;;;;;;;;;;;;;16.40;48.05;99277.72;4273549;33;34299;-84
2022/05/23 01:10:03;;;;;;;;;;;;;;;16.12;48.68;99280.69;4269309;33;33422;-85
2022/05/23 01:12:31;;;;;;;;;;;;;;;16.38;47.71;99283.03;4257145;33;34120;-86
2022/05/23 01:15:00;;;;;;;;;;;;;;;16.27;48.13;99276.56;4270223;33;34166;-84
2022/05/23 01:17:30;;;;;;;;;;;;;;;16.23;48.39;99273.22;4270089;33;34278;-84
2022/05/23 01:20:02;;;;;;;;;;;;;;;16.23;48.53;99272.38;4261552;33;33984;-84
2022/05/23 01:22:37;;;;;;;;;;;;;;;16.19;48.96;99282.97;4260506;33;33982;-84
2022/05/23 01:25:09;;;;;;;;;;;;;;;16.12;48.83;99280.69;4258894;33;33509;-84
2022/05/23 01:27:40;;;;;;;;;;;;;;;15.85;49.63;99275.72;4270460;33;34064;-85
2022/05/23 01:30:08;;;;;;;;;;;;;;;16.14;48.96;99279.72;4270110;33;35018;-84
2022/05/23 01:32:38;;;;;;;;;;;;;;;16.11;48.76;99279.81;4270601;33;33657;-84
2022/05/23 01:35:07;;;;;;;;;;;;;;;16.20;48.32;99268.97;4275278;33;34263;-84
2022/05/23 01:37:36;;;;;;;;;;;;;;;16.34;47.50;99259.69;4270442;33;34832;-84
2022/05/23 01:40:06;;;;;;;;;;;;;;;16.18;47.80;99255.09;4270059;33;34840;-84
2022/05/23 01:42:35;;;;;;;;;;;;;;;16.15;47.90;99251.78;4271354;33;35047;-83
2022/05/23 01:45:06;;;;;;;;;;;;;;;16.15;48.36;99249.16;4269894;33;34097;-86
2022/05/23 01:47:35;;;;;;;;;;;;;;;16.24;48.49;99245.28;4275734;33;33987;-86
2022/05/23 01:50:04;;;;;;;;;;;;;;;16.09;48.76;99249.41;4269950;33;33799;-85
2022/05/23 01:52:34;;;;;;;;;;;;;;;15.73;49.13;99247.44;4270621;33;33373;-84
2022/05/23 01:55:03;;;;;;;;;;;;;;;15.74;49.08;99243.91;4269784;33;34000;-84
2022/05/23 01:57:32;;;;;;;;;;;;;;;15.90;48.77;99239.75;4270410;33;33865;-85
2022/05/23 02:02:50;;;;;;;;;;;;;;;15.65;48.77;99239.87;4275649;33;34127;-85
2022/05/23 02:05:20;;;;;;;;;;;;;;;15.69;49.33;99238.84;4270299;33;34776;-84
2022/05/23 02:07:49;;;;;;;;;;;;;;;15.70;49.40;99237.09;4269646;33;33883;-84
2022/05/23 02:10:17;;;;;;;;;;;;;;;15.86;49.28;99238.16;4270025;33;34519;-85
2022/05/23 02:12:46;;;;;;;;;;;;;;;15.41;50.13;99241.72;4270249;33;33110;-85
2022/05/23 02:15:15;;;;;;;;;;;;;;;15.63;49.76;99235.59;4275253;33;34652;-86
2022/05/23 02:17:45;;;;;;;;;;;;;;;15.66;49.78;99235.50;4270932;33;34115;-85
2022/05/23 02:20:16;;;;;;;;;;;;;;;15.64;49.82;99235.56;4269719;33;34778;-84
2022/05/23 02:22:45;;;;;;;;;;;;;;;15.51;50.00;99239.56;4269726;33;32685;-84
2022/05/23 02:25:14;;;;;;;;;;;;;;;15.38;50.49;99244.47;4270122;33;34947;-85
2022/05/23 02:27:42;;;;;;;;;;;;;;;15.33;50.72;99242.03;4269992;33;33897;-85
2022/05/23 02:30:11;;;;;;;;;;;;;;;15.41;50.34;99240.88;4275195;33;34208;-84
2022/05/23 02:32:40;;;;;;;;;;;;;;;15.26;50.31;99237.09;4269760;33;33136;-84
2022/05/23 02:35:09;;;;;;;;;;;;;;;15.36;50.03;99231.44;4255534;33;34134;-84
2022/05/23 02:37:39;;;;;;;;;;;;;;;15.36;50.17;99239.28;4255738;33;34152;-86
2022/05/23 02:40:09;;;;;;;;;;;;;;;15.28;50.51;99233.53;4269743;33;34681;-84
2022/05/23 02:42:38;;;;;;;;;;;;;;;15.39;50.02;99242.69;4275521;33;33745;-84
2022/05/23 02:45:07;;;;;;;;;;;;;;;14.98;50.82;99232.97;4270212;33;34158;-84
2022/05/23 02:47:36;;;;;;;;;;;;;;;14.94;50.76;99237.44;4269943;33;33503;-84
2022/05/23 02:50:09;;;;;;;;;;;;;;;15.04;50.77;99237.94;4272074;33;33843;-84
2022/05/23 02:52:40;;;;;;;;;;;;;;;15.16;50.38;99231.37;4269838;33;34022;-84
2022/05/23 02:55:11;;;;;;;;;;;;;;;15.34;49.76;99233.28;4275162;33;33787;-84
2022/05/23 02:57:40;;;;;;;;;;;;;;;15.48;49.31;99237.94;4273513;33;34093;-84
2022/05/23 03:00:10;;;;;;;;;;;;;;;15.31;49.98;99236.00;4269950;33;34581;-84
2022/05/23 03:05:25;;;;;;;;;;;;;;;15.22;50.34;99230.28;4269776;33;34241;-84
2022/05/23 03:07:55;;;;;;;;;;;;;;;15.24;50.29;99231.94;4269832;33;34747;-85
2022/05/23 03:10:24;;;;;;;;;;;;;;;15.19;50.27;99236.50;4275239;33;33507;-84
2022/05/23 03:12:53;;;;;;;;;;;;;;;14.89;51.12;99234.16;4269699;33;33993;-84
2022/05/23 03:15:21;;;;;;;;;;;;;;;15.08;50.51;99236.91;4269629;33;34148;-85
2022/05/23 03:17:50;;;;;;;;;;;;;;;15.24;49.87;99241.53;4269678;33;34422;-84
2022/05/23 03:20:19;;;;;;;;;;;;;;;15.04;50.64;99235.31;4269600;33;33923;-84
2022/05/23 03:28:23;;;;;;;;;;;;;;;15.10;50.88;99239.44;4275442;33;34146;-84
2022/05/23 03:30:52;;;;;;;;;;;;;;;15.02;50.68;99241.53;4269418;33;34305;-85
2022/05/23 03:33:21;;;;;;;;;;;;;;;14.98;50.84;99247.75;4269538;33;33287;-84
2022/05/23 03:35:50;;;;;;;;;;;;;;;14.92;51.21;99238.41;4269667;33;33818;-84
2022/05/23 03:38:20;;;;;;;;;;;;;;;15.08;51.00;99246.53;4269443;33;34022;-86
2022/05/23 03:40:50;;;;;;;;;;;;;;;14.83;51.55;99243.97;4274504;33;33901;-86
2022/05/23 03:43:19;;;;;;;;;;;;;;;14.96;51.55;99245.22;4269686;33;32301;-84
2022/05/23 03:45:48;;;;;;;;;;;;;;;15.00;51.61;99248.56;4269561;33;33733;-84
2022/05/23 03:48:17;;;;;;;;;;;;;;;15.05;51.53;99246.63;4269513;33;33724;-86
2022/05/23 03:50:46;;;;;;;;;;;;;;;15.09;51.34;99243.00;4269092;33;34328;-85
2022/05/23 03:53:15;;;;;;;;;;;;;;;15.17;51.11;99248.75;4274582;33;32907;-84
2022/05/23 03:55:43;;;;;;;;;;;;;;;15.27;51.10;99238.78;4269391;33;34843;-84
2022/05/23 03:58:14;;;;;;;;;;;;;;;15.29;50.81;99244.81;4269278;33;34264;-86
2022/05/23 04:00:49;;;;;;;;;;;;;;;15.28;51.02;99246.59;4269400;33;34739;-84
2022/05/23 04:03:18;;;;;;;;;;;;;;;15.33;50.99;99243.78;4269379;33;33433;-84
2022/05/23 04:05:47;;;;;;;;;;;;;;;15.34;50.59;99237.63;4270551;33;34268;-85
2022/05/23 04:08:15;;;;;;;;;;;;;;;15.44;50.37;99241.59;4274540;33;34320;-85
2022/05/23 04:10:45;;;;;;;;;;;;;;;15.64;49.80;99238.19;4269131;33;34274;-86
2022/05/23 04:13:15;;;;;;;;;;;;;;;15.72;49.70;99237.88;4269177;33;33273;-84
2022/05/23 04:15:44;;;;;;;;;;;;;;;15.70;49.89;99240.56;4268704;33;34026;-85
2022/05/23 04:18:14;;;;;;;;;;;;;;;15.89;49.17;99238.03;4268960;33;34809;-84
2022/05/23 04:20:42;;;;;;;;;;;;;;;15.87;49.42;99239.00;4274527;33;34412;-85
2022/05/23 04:23:12;;;;;;;;;;;;;;;15.86;49.39;99237.31;4268941;33;33135;-84
2022/05/23 04:25:41;;;;;;;;;;;;;;;15.92;48.92;99235.31;4268974;33;34654;-85
2022/05/23 04:28:10;;;;;;;;;;;;;;;16.10;48.84;99235.44;4269376;33;34757;-84
2022/05/23 04:30:42;;;;;;;;;;;;;;;16.11;48.54;99229.25;4270402;33;34942;-84
2022/05/23 04:35:57;;;;;;;;;;;;;;;16.53;47.56;99231.78;4273995;33;33802;-85
2022/05/23 04:38:26;;;;;;;;;;;;;;;16.57;47.00;99235.94;4268827;33;34149;-84
2022/05/23 04:40:55;;;;;;;;;;;;;;;16.73;46.81;99235.25;4268786;33;33892;-86
2022/05/23 04:43:27;;;;;;;;;;;;;;;17.03;46.21;99227.75;4268571;33;33397;-85
2022/05/23 04:45:57;;;;;;;;;;;;;;;18.10;43.89;99224.28;4270310;33;33914;-85
2022/05/23 04:51:13;;;;;;;;;;;;;;;20.32;37.89;99231.22;4261322;33;35055;-85
2022/05/23 04:53:42;;;;;;;;;;;;;;;21.37;35.97;99238.75;4256803;33;33282;-85
2022/05/23 04:56:11;;;;;;;;;;;;;;;21.68;35.59;99246.37;4256267;33;33585;-85
2022/05/23 04:58:39;;;;;;;;;;;;;;;22.49;34.34;99239.19;4256419;33;34322;-86
2022/05/23 05:01:09;;;;;;;;;;;;;;;22.89;33.10;99242.53;4256500;33;34109;-85
2022/05/23 05:03:38;;;;;;;;;;;;;;;23.54;32.06;99246.66;4261847;33;33888;-85
2022/05/23 05:06:07;;;;;;;;;;;;;;;23.87;31.42;99253.06;4260066;33;33993;-86
2022/05/23 05:08:36;;;;;;;;;;;;;;;23.92;31.96;99255.38;4271719;33;34984;-85
2022/05/23 05:11:05;;;;;;;;;;;;;;;24.18;31.25;99253.41;4270588;33;33740;-85
2022/05/23 05:13:35;;;;;;;;;;;;;;;24.41;30.88;99249.81;4270587;33;33703;-86
2022/05/23 05:16:05;;;;;;;;;;;;;;;23.97;30.87;99259.38;4275891;33;33754;-86
2022/05/23 05:18:36;;;;;;;;;;;;;;;24.33;30.81;99265.50;4270715;33;34990;-85
2022/05/23 05:21:06;;;;;;;;;;;;;;;24.12;30.94;99265.31;4271749;33;33527;-85
2022/05/23 05:23:38;;;;;;;;;;;;;;;24.10;31.14;99258.44;4273018;33;37015;-85
2022/05/23 05:26:08;;;;;;;;;;;;;;;23.89;32.21;99258.25;4270605;33;34719;-86
2022/05/23 05:28:37;;;;;;;;;;;;;;;23.98;32.06;99254.91;4271852;33;34028;-86
2022/05/23 05:31:07;;;;;;;;;;;;;;;23.77;32.02;99254.72;4275794;33;34810;-87
2022/05/23 05:33:37;;;;;;;;;;;;;;;23.69;32.21;99260.56;4271025;33;34154;-86
2022/05/23 05:36:09;;;;;;;;;;;;;;;23.21;32.48;99256.09;4270301;33;34680;-85
2022/05/23 05:38:38;;;;;;;;;;;;;;;23.20;32.87;99258.88;4270703;33;35124;-86
2022/05/23 05:41:09;;;;;;;;;;;;;;;23.20;32.72;99257.06;4270085;33;34069;-85
2022/05/23 05:43:39;;;;;;;;;;;;;;;23.42;32.47;99258.16;4275942;33;32455;-85
2022/05/23 05:46:10;;;;;;;;;;;;;;;23.31;32.20;99255.44;4270755;33;33132;-86
2022/05/23 05:48:41;;;;;;;;;;;;;;;22.65;33.42;99258.31;4270520;33;34891;-87
2022/05/23 05:51:10;;;;;;;;;;;;;;;22.80;33.67;99259.03;4273447;33;32975;-86
2022/05/23 05:53:40;;;;;;;;;;;;;;;23.07;33.20;99252.75;4271374;33;33405;-87
2022/05/23 05:56:10;;;;;;;;;;;;;;;22.33;34.76;99258.75;4274605;33;33432;-86
2022/05/23 05:58:38;;;;;;;;;;;;;;;22.44;35.21;99257.16;4274872;33;34646;-85
2022/05/23 06:01:08;;;;;;;;;;;;;;;22.87;34.92;99268.22;4270338;33;33862;-85
2022/05/23 06:03:36;;;;;;;;;;;;;;;22.88;34.40;99263.78;4270422;33;33827;-86
2022/05/23 06:11:40;;;;;;;;;;;;;;;22.09;33.13;99266.53;4220312;33;33290;-86
2022/05/23 06:14:10;;;;;;;;;;;;;;;22.07;33.79;99271.06;4230773;33;33249;-87
2022/05/23 06:16:39;;;;;;;;;;;;;;;21.97;32.36;99264.72;4225477;33;33864;-86
2022/05/23 06:19:08;;;;;;;;;;;;;;;21.81;33.18;99272.78;4225667;33;34968;-86
2022/05/23 06:21:40;;;;;;;;;;;;;;;21.58;33.70;99276.97;4225827;33;33885;-87
2022/05/23 06:24:09;;;;;;;;;;;;;;;21.46;33.90;99273.34;4230957;33;33772;-86
2022/05/23 06:26:38;;;;;;;;;;;;;;;21.58;33.77;99282.25;4225822;33;34757;-86
2022/05/23 06:29:08;;;;;;;;;;;;;;;21.20;34.45;99274.97;4226247;33;34066;-87
2022/05/23 06:31:36;;;;;;;;;;;;;;;21.47;34.54;99271.53;4225560;33;34309;-87
2022/05/23 06:34:07;;;;;;;;;;;;;;;21.35;34.22;99269.66;4225700;33;34233;-87
2022/05/23 06:36:37;;;;;;;;;;;;;;;21.54;34.64;99270.19;4227371;33;34487;-87
2022/05/23 06:39:09;;;;;;;;;;;;;;;21.44;34.73;99267.31;4241683;33;34086;-86
2022/05/23 06:41:40;;;;;;;;;;;;;;;21.45;34.43;99261.06;4223590;33;34463;-87
2022/05/23 06:44:09;;;;;;;;;;;;;;;21.55;34.28;99263.94;4221436;33;32821;-87
2022/05/23 06:46:40;;;;;;;;;;;;;;;21.58;33.85;99266.41;4221233;33;33269;-86
2022/05/23 06:49:10;;;;;;;;;;;;;;;21.65;33.94;99251.00;4242541;33;34548;-86
2022/05/23 06:51:49;;;;;;;;;;;;;;;21.57;34.78;99253.31;4274037;33;34606;-86
2022/05/23 06:54:19;;;;;;;;;;;;;;;21.64;33.89;99244.88;4266421;33;33307;-87
2022/05/23 06:56:49;;;;;;;;;;;;;;;21.55;34.13;99253.37;4267560;33;33970;-86
2022/05/23 06:59:20;;;;;;;;;;;;;;;21.51;34.94;99252.75;4266770;33;34948;-86
2022/05/23 07:01:49;;;;;;;;;;;;;;;21.75;34.86;99246.81;4266555;33;34643;-87
2022/05/23 07:04:19;;;;;;;;;;;;;;;21.72;34.85;99254.91;4267194;33;33274;-87
2022/05/23 07:12:28;;;;;;;;;;;;;;;21.65;33.89;99241.31;4268642;33;34773;-86
2022/05/23 07:14:57;;;;;;;;;;;;;;;21.62;34.41;99238.84;4267726;33;32547;-86
2022/05/23 07:17:26;;;;;;;;;;;;;;;21.81;33.39;99235.84;4267807;33;34041;-86
2022/05/23 07:19:58;;;;;;;;;;;;;;;21.82;34.40;99236.66;4268026;33;34060;-86
2022/05/23 07:22:27;;;;;;;;;;;;;;;21.81;34.04;99235.84;4272540;33;33837;-86
2022/05/23 07:24:58;;;;;;;;;;;;;;;21.85;33.97;99237.31;4267906;33;34014;-87
2022/05/23 07:27:28;;;;;;;;;;;;;;;21.81;34.11;99229.72;4265226;33;34604;-86
2022/05/23 07:29:57;;;;;;;;;;;;;;;21.91;32.75;99230.78;4266943;33;33976;-87
2022/05/23 07:32:26;;;;;;;;;;;;;;;21.90;32.04;99221.19;4265526;33;34395;-87
2022/05/23 07:34:55;;;;;;;;;;;;;;;21.91;33.54;99222.84;4267711;33;33394;-87
2022/05/23 07:37:24;;;;;;;;;;;;;;;22.07;32.92;99227.97;4281725;33;34698;-87
2022/05/23 07:39:54;;;;;;;;;;;;;;;21.58;33.64;99218.06;4252450;33;33359;-86
2022/05/23 07:42:29;;;;;;;;;;;;;;;22.45;31.56;99219.22;4265412;33;32584;-86
2022/05/23 07:45:03;;;;;;;;;;;;;;;22.35;32.70;99224.31;4263695;33;33298;-85
2022/05/23 07:47:44;;;;;;;;;;;;;;;22.34;31.80;99217.31;4265917;33;34946;-86
2022/05/23 07:50:16;;;;;;;;;;;;;;;22.21;31.20;99214.69;4274766;33;34215;-87
2022/05/23 08:01:16;;;;;;;;;;;;;;;22.53;32.23;99215.06;4268188;33;33642;-86
2022/05/23 08:03:51;;;;;;;;;;;;;;;22.64;31.04;99208.19;4267967;33;33937;-85
2022/05/23 08:06:22;;;;;;;;;;;;;;;22.52;32.19;99205.47;4277730;33;32830;-86
2022/05/23 08:08:56;;;;;;;;;;;;;;;22.58;32.53;99197.09;4271943;33;33833;-85
2022/05/23 08:11:28;;;;;;;;;;;;;;;22.42;32.14;99209.69;4261919;33;34120;-86
2022/05/23 08:14:00;;;;;;;;;;;;;;;21.85;32.93;99203.00;4269556;33;33940;-86
2022/05/23 08:16:30;;;;;;;;;;;;;;;22.62;31.22;99200.37;4269809;33;33690;-86
2022/05/23 08:19:01;;;;;;;;;;;;;;;22.23;31.97;99199.56;4267359;33;33961;-86
2022/05/23 08:21:30;;;;;;;;;;;;;;;22.42;31.67;99203.56;4270835;33;33823;-86
2022/05/23 08:23:59;;;;;;;;;;;;;;;21.67;32.32;99197.16;4275446;33;34330;-86
2022/05/23 08:26:29;;;;;;;;;;;;;;;21.92;32.28;99198.16;4269336;33;32371;-87
2022/05/23 08:29:00;;;;;;;;;;;;;;;22.71;30.99;99197.09;4271145;33;35092;-86
2022/05/23 08:31:28;;;;;;;;;;;;;;;22.37;30.99;99196.81;4271546;33;34075;-86
2022/05/23 08:33:59;;;;;;;;;;;;;;;23.04;29.67;99194.78;4257056;33;32846;-87
2022/05/23 08:36:28;;;;;;;;;;;;;;;22.99;30.26;99184.53;4261807;33;33518;-86
2022/05/23 08:38:56;;;;;;;;;;;;;;;22.99;29.59;99188.03;4259997;33;34245;-86
2022/05/23 08:41:26;;;;;;;;;;;;;;;23.09;28.33;99187.34;4269627;33;34690;-86
2022/05/23 08:44:02;;;;;;;;;;;;;;;23.38;27.88;99187.84;4277198;33;33321;-86
2022/05/23 08:46:35;;;;;;;;;;;;;;;23.35;27.68;99183.63;4277329;33;33395;-86
2022/05/23 08:49:05;;;;;;;;;;;;;;;23.24;28.16;99173.00;4275404;33;34711;-86
2022/05/23 08:51:37;;;;;;;;;;;;;;;23.56;28.42;99175.06;4260719;33;34065;-86
2022/05/23 08:54:09;;;;;;;;;;;;;;;23.95;29.45;99165.91;4256865;33;33915;-86
2022/05/23 08:56:42;;;;;;;;;;;;;;;23.82;27.79;99166.03;4256302;33;31295;-86
2022/05/23 08:59:13;;;;;;;;;;;;;;;24.01;26.92;99159.28;4256991;33;34160;-86
2022/05/23 09:01:45;;;;;;;;;;;;;;;23.84;28.03;99164.06;4257045;33;34141;-86
2022/05/23 09:04:14;;;;;;;;;;;;;;;24.19;27.70;99155.22;4260776;33;34062;-86
2022/05/23 09:06:48;;;;;;;;;;;;;;;23.97;28.81;99149.88;4256698;33;33012;-87
2022/05/23 09:09:17;;;;;;;;;;;;;;;24.30;27.51;99159.66;4256932;33;33922;-86
2022/05/23 09:11:46;;;;;;;;;;;;;;;24.56;28.50;99154.16;4257063;33;35020;-86
2022/05/23 09:14:16;;;;;;;;;;;;;;;24.52;27.23;99153.53;4256055;33;34634;-87
2022/05/23 09:16:48;;;;;;;;;;;;;;;24.56;28.59;99151.50;4260924;33;34309;-87
2022/05/23 09:19:18;;;;;;;;;;;;;;;24.54;28.13;99148.97;4257016;33;34253;-86
2022/05/23 09:24:35;;;;;;;;;;;;;;;24.58;27.42;99146.94;4250322;33;33869;-86
2022/05/23 09:27:04;;;;;;;;;;;;;;;24.83;28.60;99151.91;4254805;33;33736;-86
2022/05/23 09:29:33;;;;;;;;;;;;;;;25.00;28.02;99153.22;4254356;33;34028;-87
2022/05/23 09:32:04;;;;;;;;;;;;;;;25.16;28.03;99157.28;4259652;33;33851;-87
2022/05/23 09:34:34;;;;;;;;;;;;;;;24.96;27.67;99143.84;4258833;33;33920;-86
2022/05/23 09:37:03;;;;;;;;;;;;;;;25.32;27.29;99153.25;4254251;33;33229;-87
2022/05/23 09:39:34;;;;;;;;;;;;;;;25.35;27.59;99154.81;4254919;33;33973;-86
2022/05/23 09:47:49;;;;;;;;;;;;;;;25.94;27.26;99148.09;4250648;33;33038;-87
2022/05/23 09:50:33;;;;;;;;;;;;;;;25.74;26.90;99145.31;4263678;33;34272;-88
2022/05/23 09:53:15;;;;;;;;;;;;;;;25.97;26.58;99134.56;4273564;33;34003;-86
2022/05/23 09:55:45;;;;;;;;;;;;;;;26.31;26.63;99131.63;4268920;33;34287;-87
2022/05/23 09:58:22;;;;;;;;;;;;;;;26.40;25.43;99136.12;4269235;33;33451;-86
2022/05/23 10:00:57;;;;;;;;;;;;;;;26.28;24.87;99135.41;4269003;33;34497;-86
2022/05/23 10:03:28;;;;;;;;;;;;;;;26.65;26.24;99142.84;4268903;33;34269;-86
2022/05/23 10:06:04;;;;;;;;;;;;;;;26.36;24.76;99135.59;4268692;33;33327;-86
2022/05/23 10:08:35;;;;;;;;;;;;;;;26.86;23.69;99141.91;4273882;33;33099;-86
2022/05/23 10:11:05;;;;;;;;;;;;;;;26.68;24.47;99129.25;4268571;33;34071;-88
2022/05/23 10:13:34;;;;;;;;;;;;;;;26.83;25.26;99135.03;4270041;33;33721;-87
2022/05/23 10:16:12;;;;;;;;;;;;;;;26.81;24.11;99132.50;4270284;33;33351;-87
2022/05/23 10:18:50;;;;;;;;;;;;;;;27.01;25.37;99135.19;4271609;33;33347;-87
2022/05/23 10:21:28;;;;;;;;;;;;;;;27.01;24.33;99133.38;4270256;33;35013;-86
2022/05/23 10:24:01;;;;;;;;;;;;;;;27.21;23.22;99128.09;4275523;33;35061;-87
2022/05/23 10:26:33;;;;;;;;;;;;;;;27.20;23.64;99129.91;4270105;33;34565;-87
2022/05/23 10:29:04;;;;;;;;;;;;;;;27.01;23.30;99136.03;4256689;33;33420;-86
2022/05/23 10:31:33;;;;;;;;;;;;;;;26.79;23.58;99130.94;4256503;33;34097;-87
2022/05/23 10:34:05;;;;;;;;;;;;;;;26.99;22.93;99127.34;4256722;33;34307;-87
2022/05/23 10:36:34;;;;;;;;;;;;;;;26.50;23.93;99128.19;4262500;33;34743;-87
2022/05/23 10:42:10;;;;;;;;;;;;;;;26.62;23.31;99124.47;4269195;33;35031;-87
2022/05/23 10:44:46;;;;;;;;;;;;;;;26.57;23.64;99114.25;4270237;33;33924;-86
2022/05/23 10:47:18;;;;;;;;;;;;;;;26.33;23.29;99109.25;4270076;33;34359;-87
2022/05/23 10:49:50;;;;;;;;;;;;;;;26.48;23.78;99108.87;4270235;33;33220;-87
2022/05/23 10:52:27;;;;;;;;;;;;;;;26.63;23.98;99107.56;4267843;33;34098;-86
2022/05/23 10:54:59;;;;;;;;;;;;;;;26.83;24.18;99103.09;4269528;33;32888;-88
2022/05/23 10:57:31;;;;;;;;;;;;;;;27.41;23.64;99095.13;4273292;33;34205;-87
2022/05/23 11:00:03;;;;;;;;;;;;;;;27.28;21.88;99096.41;4268001;33;32781;-87
2022/05/23 11:02:33;;;;;;;;;;;;;;;27.34;22.35;99088.69;4268419;33;33985;-87
2022/05/23 11:05:08;;;;;;;;;;;;;;;27.11;22.21;99079.28;4268391;33;33888;-87
2022/05/23 11:07:39;;;;;;;;;;;;;;;26.91;23.89;99076.63;4269175;33;33917;-87
2022/05/23 11:10:10;;;;;;;;;;;;;;;27.19;23.98;99068.81;4273598;33;33235;-88
2022/05/23 11:13:02;;;;;;;;;;;;;;;27.28;22.88;99077.75;4273667;33;36666;-88
2022/05/23 11:15:35;;;;;;;;;;;;;;;27.46;23.45;99070.72;4268279;33;33860;-88
2022/05/23 11:18:06;;;;;;;;;;;;;;;27.47;24.07;99076.88;4268903;33;34701;-86
2022/05/23 11:20:37;;;;;;;;;;;;;;;27.80;23.92;99075.56;4268756;33;33782;-86
2022/05/23 11:23:08;;;;;;;;;;;;;;;27.59;23.56;99079.25;4266483;33;34061;-86
2022/05/23 11:25:38;;;;;;;;;;;;;;;27.59;24.16;99073.06;4230374;33;881696;-86
2022/05/23 11:33:46;;;;;;;;;;;;;;;28.33;22.20;99071.44;4270796;33;33623;-86
2022/05/23 11:36:44;;;;;;;;;;;;;;;28.67;21.93;99069.00;4269424;33;33914;-86
2022/05/23 11:39:31;;;;;;;;;;;;;;;28.73;20.46;99063.06;4272778;33;34131;-86
2022/05/23 11:42:03;;;;;;;;;;;;;;;28.74;20.21;99064.72;4269782;33;33541;-86
2022/05/23 11:44:51;;;;;;;;;;;;;;;28.15;21.11;99066.88;4260232;33;34042;-87
2022/05/23 11:47:21;;;;;;;;;;;;;;;28.07;21.51;99062.28;4254530;33;33941;-87
2022/05/23 11:50:00;;;;;;;;;;;;;;;27.90;22.63;99065.72;4266170;33;33402;-87
2022/05/23 11:52:33;;;;;;;;;;;;;;;28.30;21.26;99053.88;4266758;33;33080;-86
2022/05/23 11:55:01;;;;;;;;;;;;;;;28.53;21.94;99050.81;4267969;33;34561;-87
2022/05/23 11:57:35;;;;;;;;;;;;;;;28.59;21.96;99045.72;4268537;33;33964;-86
2022/05/23 12:00:09;;;;;;;;;;;;;;;28.86;21.67;99041.31;4268350;33;33471;-87
2022/05/23 12:02:40;;;;;;;;;;;;;;;28.79;21.67;99043.75;4267938;33;33002;-86
2022/05/23 12:05:33;;;;;;;;;;;;;;;28.58;22.14;99056.53;4272699;33;33826;-86
2022/05/23 12:08:07;;;;;;;;;;;;;;;28.18;22.66;99057.75;4258672;33;34771;-86
2022/05/23 12:10:54;;;;;;;;;;;;;;;28.01;22.28;99052.22;4267077;33;34667;-87
2022/05/23 12:13:48;;;;;;;;;;;;;;;28.09;22.79;99070.97;4264378;33;33609;-87
2022/05/23 12:16:20;;;;;;;;;;;;;;;28.48;22.84;99069.94;4264795;33;33993;-87
2022/05/23 12:18:49;;;;;;;;;;;;;;;28.69;20.91;99053.66;4267853;33;34190;-86
2022/05/23 12:21:32;;;;;;;;;;;;;;;28.80;21.51;99064.13;4267418;33;33899;-87
2022/05/23 12:24:12;;;;;;;;;;;;;;;29.13;21.43;99048.41;4268138;33;32968;-86
2022/05/23 12:27:03;;;;;;;;;;;;;;;29.12;20.75;99047.59;4266388;33;34015;-87
2022/05/23 12:29:33;;;;;;;;;;;;;;;28.48;21.04;99041.44;4259280;33;34312;-87
2022/05/23 12:32:21;;;;;;;;;;;;;;;27.70;22.35;99026.78;4268045;33;34411;-87
2022/05/23 12:34:52;;;;;;;;;;;;;;;28.65;21.74;99021.09;4251417;33;32907;-86
2022/05/23 12:37:26;;;;;;;;;;;;;;;28.91;21.52;99028.34;4265419;33;35082;-87
2022/05/23 12:40:05;;;;;;;;;;;;;;;28.42;21.28;99026.00;4265702;33;33863;-87
2022/05/23 12:42:36;;;;;;;;;;;;;;;27.84;22.15;99021.00;4267818;33;33551;-87
2022/05/23 12:45:11;;;;;;;;;;;;;;;28.41;21.34;99018.16;4272443;33;33231;-87
2022/05/23 12:47:58;;;;;;;;;;;;;;;28.53;22.61;99016.13;4268313;33;34977;-88
2022/05/23 12:50:31;;;;;;;;;;;;;;;28.84;21.21;99016.59;4252279;33;34257;-89
2022/05/23 12:53:04;;;;;;;;;;;;;;;29.42;20.94;99016.06;4264543;33;33108;-87
2022/05/23 12:55:38;;;;;;;;;;;;;;;28.67;20.87;98996.94;4266646;33;33060;-88
2022/05/23 12:58:13;;;;;;;;;;;;;;;28.46;22.08;99000.75;4266449;33;33433;-87
2022/05/23 13:00:43;;;;;;;;;;;;;;;28.16;22.02;99001.06;4254642;33;34382;-90
2022/05/23 13:03:13;;;;;;;;;;;;;;;27.92;22.86;99001.59;4271521;33;34050;-87
2022/05/23 13:05:43;;;;;;;;;;;;;;;28.20;22.02;99008.59;4268030;33;33445;-87
2022/05/23 13:08:15;;;;;;;;;;;;;;;28.06;22.47;98993.94;4268697;33;35767;-86
2022/05/23 13:10:45;;;;;;;;;;;;;;;27.83;22.13;98984.66;4269144;33;34116;-87
2022/05/23 13:13:14;;;;;;;;;;;;;;;28.42;22.44;98979.81;4269089;33;33246;-87
2022/05/23 13:15:42;;;;;;;;;;;;;;;28.59;21.26;98975.50;4273961;33;33692;-87
2022/05/23 13:24:06;;;;;;;;;;;;;;;28.93;21.31;98975.62;4268186;33;34768;-88
2022/05/23 13:26:41;;;;;;;;;;;;;;;29.20;20.67;98966.66;4271509;33;33605;-89
2022/05/23 13:29:10;;;;;;;;;;;;;;;29.42;20.41;98967.13;4269645;33;33586;-88
2022/05/23 13:31:39;;;;;;;;;;;;;;;29.46;20.69;98969.31;4268286;33;34518;-88
2022/05/23 13:34:12;;;;;;;;;;;;;;;29.86;20.44;98959.84;4273796;33;33474;-89
2022/05/23 13:36:41;;;;;;;;;;;;;;;30.02;19.59;98961.75;4268642;33;33157;-88
2022/05/23 13:39:14;;;;;;;;;;;;;;;30.27;19.58;98953.78;4268610;33;34047;-85
2022/05/23 13:41:45;;;;;;;;;;;;;;;30.92;19.49;98958.38;4269717;33;34928;-86
2022/05/23 13:44:20;;;;;;;;;;;;;;;31.34;19.37;98952.78;4270620;33;34715;-86
2022/05/23 13:46:49;;;;;;;;;;;;;;;31.28;18.79;98955.31;4269342;33;33248;-87
2022/05/23 13:49:19;;;;;;;;;;;;;;;31.27;18.17;98943.78;4271997;33;34338;-87
2022/05/23 13:51:51;;;;;;;;;;;;;;;31.60;19.13;98943.69;4264520;33;36534;-88
2022/05/23 13:54:20;;;;;;;;;;;;;;;31.86;18.00;98948.75;4266799;33;34038;-88
2022/05/23 13:56:53;;;;;;;;;;;;;;;32.30;17.71;98948.19;4263944;33;33089;-88
2022/05/23 13:59:39;;;;;;;;;;;;;;;32.60;18.72;98951.06;4267963;33;33981;-86
2022/05/23 14:02:09;;;;;;;;;;;;;;;32.75;18.11;98951.94;4267662;33;34715;-88
2022/05/23 14:04:44;;;;;;;;;;;;;;;32.69;17.55;98941.91;4273189;33;33973;-88
2022/05/23 14:07:14;;;;;;;;;;;;;;;32.59;18.12;98936.78;4265721;33;33446;-88
2022/05/23 14:09:45;;;;;;;;;;;;;;;32.87;18.01;98937.03;4267396;33;32450;-89
2022/05/23 14:12:15;;;;;;;;;;;;;;;33.17;18.07;98930.91;4269281;33;34957;-87
2022/05/23 14:14:46;;;;;;;;;;;;;;;32.71;17.21;98929.13;4268522;33;35277;-87
2022/05/23 14:17:15;;;;;;;;;;;;;;;32.28;17.66;98928.75;4271234;33;34217;-89